Aérodrome :
LOGIN :

S'inscrire | Disclaimer

   EN    FR    IT 

 










Légende :    VFR   VFR Marginal   IFR   IFR Intensif   IFR Très Intensif
Visi : 
Plafond : 
>= 8 km
>= 3000ft
5 à 8 km
1000 à 3000 ft
1500m à 5 km
500 à 1000 ft
800 à 1500m
200 à 500 ft
< 800m
< 200 ft
Symboles :   Orages  Brouillard  Fortes neiges  Fortes précipitations  Vent > 20 kt
SIGMETs :   Divers  Orages  Givrage  Turbulence  Onde Orograph.  Cendres Volcan.






- Altitude de l'aérodrome : 44 ft
- Code IATA : SOU


EGHI - Southampton

DERNIER METAR :
  • 261650Z 25007KT 220V280 9999 FEW036 06/M00 Q1009

METARs EXPIRÉS :
  • 261620Z 28010KT 250V320 9999 VCSH FEW036 08/M02 Q1009
  • 261550Z 31010KT 270V340 9999 FEW034 09/M02 Q1009
  • 261520Z 30010KT 260V340 9999 VCSH SCT034 08/M01 Q1009
  • 261450Z 28011G21KT 250V310 9999 -SHRA FEW034 SCT038 09/00 Q1008
  • 261420Z 29012G23KT 240V320 9999 FEW035 SCT040 09/M00 Q1008

TAF TAF EGHI
Valide du 26 à 15h jusqu'au 26 à 23h UTC


261350Z 2615/2623 29010KT 9999 SCT025
PROB30
TEMPO 2615/2616 28015G25KT 7000 SHRA
BECMG 2621/2623 20004KT
ATIS : +44 23 8062 7103



MET'MAP, la Météo Aéronautique d'un coup d'oeil ! - Copyright ORBIFLY Décembre 2007 - Disclaimer

ORBIFLY MET'MAP TEAM :

Programmation & Développement : Alexandra Zaïnal
Sur une idée originale de : Baudouin d'Aumeries
Assistance à la programmation : Marc-Olivier Méhu
Soutien technique & logistique : Manuel Goepfert

Contact : metmap@orbifly.com




SOURCES & CREDITS :

   NOAA